Time;durP1;ratioP1;P1;durP2;ratioP2;P2;SDS_P1;SDS_P2;PMS_P1;PMS_P2;Temp;Humidity;BMP_temperature;BMP_pressure;BME280_temperature;BME280_humidity;BME280_pressure;Samples;Min_cycle;Max_cycle;Signal;HPM_P1;HPM_P2
2021/06/09 00:02:07;;;;;;;22.93;10.95;;;15.50;99.90;;;;;;1951204;73;21075;-77
2021/06/09 00:04:34;;;;;;;20.55;12.15;;;15.60;99.90;;;;;;1950904;73;21057;-78
2021/06/09 00:07:00;;;;;;;25.27;11.78;;;15.60;99.90;;;;;;1950924;73;21049;-77
2021/06/09 00:09:26;;;;;;;23.87;11.83;;;15.50;99.90;;;;;;1951254;72;21057;-78
2021/06/09 00:11:52;;;;;;;23.30;12.37;;;15.40;99.90;;;;;;1951240;73;21108;-78
2021/06/09 00:14:18;;;;;;;23.38;13.35;;;15.40;99.90;;;;;;1950915;73;21061;-77
2021/06/09 00:16:45;;;;;;;21.85;12.25;;;15.40;99.90;;;;;;1950913;73;21064;-78
2021/06/09 00:19:11;;;;;;;22.82;11.57;;;15.40;99.90;;;;;;1950900;73;21049;-77
2021/06/09 00:21:37;;;;;;;25.90;12.93;;;15.40;99.90;;;;;;1950914;73;21018;-78
2021/06/09 00:24:03;;;;;;;22.52;12.18;;;15.40;99.90;;;;;;1950925;72;21045;-78
2021/06/09 00:26:29;;;;;;;24.60;11.68;;;15.30;99.90;;;;;;1952371;73;21049;-78
2021/06/09 00:28:57;;;;;;;22.90;13.32;;;15.30;99.90;;;;;;1951205;73;21017;-77
2021/06/09 00:31:25;;;;;;;22.22;12.33;;;15.30;99.90;;;;;;1951217;72;21456;-78
2021/06/09 00:33:51;;;;;;;23.10;12.33;;;15.30;99.90;;;;;;1951290;72;21085;-78
2021/06/09 00:36:17;;;;;;;23.10;12.35;;;15.20;99.90;;;;;;1952137;73;21562;-77
2021/06/09 00:38:44;;;;;;;23.65;12.40;;;15.10;99.90;;;;;;1951555;73;21060;-77
2021/06/09 00:41:10;;;;;;;28.40;13.60;;;15.10;99.90;;;;;;1950977;73;21044;-77
2021/06/09 00:43:36;;;;;;;28.07;13.65;;;15.10;99.90;;;;;;1953597;73;21052;-77
2021/06/09 00:46:02;;;;;;;29.60;13.65;;;15.20;99.90;;;;;;1954131;73;21082;-77
2021/06/09 00:48:29;;;;;;;25.25;13.93;;;15.20;99.90;;;;;;1951209;73;21054;-77
2021/06/09 00:50:56;;;;;;;30.85;12.60;;;15.20;99.90;;;;;;1950949;73;21541;-77
2021/06/09 00:53:28;;;;;;;24.70;13.80;;;15.30;99.90;;;;;;1950674;73;21532;-77
2021/06/09 00:55:54;;;;;;;26.00;12.88;;;15.30;99.90;;;;;;1950694;73;21021;-78
2021/06/09 00:58:21;;;;;;;22.10;12.90;;;15.40;99.90;;;;;;1950890;73;21118;-77
2021/06/09 01:00:47;;;;;;;25.08;13.22;;;15.40;99.90;;;;;;1950688;73;21049;-77
2021/06/09 01:03:14;;;;;;;24.52;12.60;;;15.20;99.90;;;;;;1950923;73;21119;-77
2021/06/09 01:05:40;;;;;;;23.98;12.50;;;15.20;99.90;;;;;;1951042;72;21119;-77
2021/06/09 01:08:07;;;;;;;29.10;13.78;;;15.20;99.90;;;;;;1950665;73;21122;-77
2021/06/09 01:10:34;;;;;;;25.62;12.75;;;15.20;99.90;;;;;;1950820;73;21118;-78
2021/06/09 01:13:00;;;;;;;24.98;13.75;;;15.20;99.90;;;;;;1951039;73;21049;-77
2021/06/09 01:15:26;;;;;;;22.67;12.37;;;15.20;99.90;;;;;;1951108;73;21045;-76
2021/06/09 01:17:52;;;;;;;20.97;12.73;;;15.30;99.90;;;;;;1950946;73;21074;-77
2021/06/09 01:20:18;;;;;;;21.73;12.43;;;15.40;99.90;;;;;;1950931;73;21126;-77
2021/06/09 01:22:46;;;;;;;25.27;12.93;;;15.30;99.90;;;;;;1950906;73;21056;-78
2021/06/09 01:25:12;;;;;;;24.65;13.85;;;15.40;99.90;;;;;;1951363;73;21345;-78
2021/06/09 01:27:38;;;;;;;28.75;12.82;;;15.40;99.90;;;;;;1951938;73;21044;-77
2021/06/09 01:30:04;;;;;;;23.70;13.05;;;15.20;99.90;;;;;;1952063;73;21037;-77
2021/06/09 01:32:30;;;;;;;27.65;14.18;;;15.20;99.90;;;;;;1954357;73;21025;-77
2021/06/09 01:34:56;;;;;;;30.20;14.70;;;15.20;99.90;;;;;;1954116;72;21037;-77
2021/06/09 01:37:22;;;;;;;33.50;15.05;;;15.20;99.90;;;;;;1953178;73;21065;-78
2021/06/09 01:39:49;;;;;;;32.65;16.48;;;15.10;99.90;;;;;;1950985;73;21106;-77
2021/06/09 01:42:17;;;;;;;34.20;15.53;;;15.10;99.90;;;;;;1950835;73;21060;-78
2021/06/09 01:44:42;;;;;;;36.93;15.03;;;15.10;99.90;;;;;;1950819;72;21113;-77
2021/06/09 01:47:09;;;;;;;29.85;14.43;;;15.20;99.90;;;;;;1951491;73;21044;-78
2021/06/09 01:49:35;;;;;;;30.37;14.70;;;15.20;99.90;;;;;;1953787;72;21065;-77
2021/06/09 01:52:01;;;;;;;37.78;15.00;;;15.20;99.90;;;;;;1951795;73;21133;-77
2021/06/09 01:54:27;;;;;;;22.80;14.05;;;15.20;99.90;;;;;;1950896;73;21025;-78
2021/06/09 01:56:53;;;;;;;27.98;14.33;;;15.00;99.90;;;;;;1953217;72;21069;-77
2021/06/09 01:59:19;;;;;;;37.13;15.13;;;15.00;99.90;;;;;;1950840;73;21049;-77
2021/06/09 02:01:45;;;;;;;32.30;14.18;;;15.00;99.90;;;;;;1950987;73;21021;-77
2021/06/09 02:04:12;;;;;;;29.42;13.98;;;15.00;99.90;;;;;;1950774;73;21061;-77
2021/06/09 02:06:38;;;;;;;23.80;13.00;;;15.00;99.90;;;;;;1950789;73;21033;-77
2021/06/09 02:09:04;;;;;;;28.15;14.55;;;15.00;99.90;;;;;;1950726;73;21520;-77
2021/06/09 02:11:30;;;;;;;29.23;13.83;;;15.00;99.90;;;;;;1950948;73;21468;-77
2021/06/09 02:13:56;;;;;;;24.87;13.20;;;14.90;99.90;;;;;;1950953;73;21425;-77
2021/06/09 02:16:22;;;;;;;24.40;13.90;;;14.90;99.90;;;;;;1950760;73;21522;-77
2021/06/09 02:18:48;;;;;;;24.87;13.80;;;14.80;99.90;;;;;;1950953;73;21530;-77
2021/06/09 02:21:16;;;;;;;32.50;15.08;;;14.90;99.90;;;;;;1950719;73;21476;-77
2021/06/09 02:23:46;;;;;;;29.35;14.30;;;14.90;99.90;;;;;;1950791;73;21165;-77
2021/06/09 02:26:10;;;;;;;31.20;14.63;;;14.80;99.90;;;;;;1950677;73;21118;-78
2021/06/09 02:28:36;;;;;;;29.70;14.15;;;14.80;99.90;;;;;;1950798;73;21053;-77
2021/06/09 02:31:02;;;;;;;36.30;15.72;;;14.90;99.90;;;;;;1950859;73;21149;-77
2021/06/09 02:33:28;;;;;;;37.33;14.90;;;15.00;99.90;;;;;;1950851;73;21026;-77
2021/06/09 02:35:54;;;;;;;28.32;14.10;;;15.00;99.90;;;;;;1950867;73;21118;-78
2021/06/09 02:38:20;;;;;;;29.23;13.68;;;14.90;99.90;;;;;;1950880;73;21052;-77
2021/06/09 02:40:46;;;;;;;30.70;13.60;;;14.90;99.90;;;;;;1950893;73;21029;-77
2021/06/09 02:43:12;;;;;;;22.37;12.33;;;14.90;99.90;;;;;;1950889;73;21095;-77
2021/06/09 02:45:39;;;;;;;24.75;13.18;;;14.80;99.90;;;;;;1950909;73;21135;-78
2021/06/09 02:48:05;;;;;;;21.70;12.43;;;14.80;99.90;;;;;;1951050;73;21029;-77
2021/06/09 02:50:32;;;;;;;22.37;12.45;;;14.80;99.90;;;;;;1950853;73;21535;-77
2021/06/09 02:53:02;;;;;;;23.98;12.85;;;14.80;99.90;;;;;;1950880;73;21057;-77
2021/06/09 02:55:26;;;;;;;22.05;13.03;;;14.80;99.90;;;;;;1950687;73;21412;-77
2021/06/09 02:57:52;;;;;;;19.67;11.63;;;14.80;99.90;;;;;;1950869;73;21511;-77
2021/06/09 03:00:18;;;;;;;24.30;11.90;;;14.80;99.90;;;;;;1950871;73;21479;-77
2021/06/09 03:02:47;;;;;;;21.42;13.38;;;14.80;99.90;;;;;;1950857;73;21565;-77
2021/06/09 03:05:12;;;;;;;22.15;13.30;;;14.70;99.90;;;;;;1950825;72;21088;-77
2021/06/09 03:07:38;;;;;;;21.37;12.50;;;14.80;99.90;;;;;;1950868;72;21053;-77
2021/06/09 03:10:05;;;;;;;20.88;12.23;;;14.80;99.90;;;;;;1950865;73;21065;-77
2021/06/09 03:12:36;;;;;;;23.52;12.93;;;14.80;99.90;;;;;;1950861;73;21053;-77
2021/06/09 03:15:11;;;;;;;21.07;12.55;;;14.80;99.90;;;;;;1950824;72;21094;-77
2021/06/09 03:17:37;;;;;;;24.72;13.35;;;14.90;99.90;;;;;;1950938;73;21022;-77
2021/06/09 03:20:04;;;;;;;21.60;13.18;;;15.00;99.90;;;;;;1950853;73;21064;-77
2021/06/09 03:22:30;;;;;;;21.00;12.47;;;14.90;99.90;;;;;;1950870;73;21122;-77
2021/06/09 03:24:57;;;;;;;22.05;13.32;;;14.80;99.90;;;;;;1950905;73;21053;-77
2021/06/09 03:27:23;;;;;;;21.00;12.98;;;14.90;99.90;;;;;;1950848;73;21104;-76
2021/06/09 03:29:49;;;;;;;21.97;13.60;;;14.90;99.90;;;;;;1950819;73;21057;-76
2021/06/09 03:32:15;;;;;;;21.25;13.68;;;14.90;99.90;;;;;;1950849;73;21026;-76
2021/06/09 03:34:41;;;;;;;25.15;13.60;;;14.80;99.90;;;;;;1950867;73;21126;-77
2021/06/09 03:37:07;;;;;;;24.23;14.30;;;14.80;99.90;;;;;;1951166;73;21056;-76
2021/06/09 03:39:33;;;;;;;30.85;15.32;;;14.80;99.90;;;;;;1950980;72;21130;-77
2021/06/09 03:41:59;;;;;;;38.85;15.95;;;14.80;99.90;;;;;;1950876;73;21052;-77
2021/06/09 03:44:26;;;;;;;41.75;17.75;;;14.90;99.90;;;;;;1950846;73;21057;-77
2021/06/09 03:46:52;;;;;;;54.58;21.52;;;14.90;99.90;;;;;;1950920;73;21057;-77
2021/06/09 03:49:18;;;;;;;69.05;25.45;;;15.00;99.90;;;;;;1950884;73;21032;-77
2021/06/09 03:51:44;;;;;;;71.65;24.27;;;14.90;99.90;;;;;;1950904;73;21061;-77
2021/06/09 03:54:10;;;;;;;83.62;27.05;;;14.90;99.90;;;;;;1950850;73;21029;-77
2021/06/09 03:56:36;;;;;;;80.87;27.48;;;15.00;99.90;;;;;;1950845;73;21126;-76
2021/06/09 03:59:02;;;;;;;68.50;23.75;;;15.00;99.90;;;;;;1950910;73;21104;-76
2021/06/09 04:01:30;;;;;;;73.65;26.25;;;15.00;99.90;;;;;;1950945;73;21029;-76
2021/06/09 04:03:56;;;;;;;84.42;28.07;;;15.10;99.90;;;;;;1950992;73;21061;-76
2021/06/09 04:06:22;;;;;;;72.32;26.97;;;15.00;99.90;;;;;;1950909;73;21145;-76
2021/06/09 04:08:48;;;;;;;79.05;27.85;;;14.90;99.90;;;;;;1950902;73;21033;-76
2021/06/09 04:11:14;;;;;;;94.50;28.90;;;14.90;99.90;;;;;;1950842;72;21057;-76
2021/06/09 04:13:40;;;;;;;88.03;27.70;;;14.90;99.90;;;;;;1950778;73;21118;-76
2021/06/09 04:16:06;;;;;;;88.52;27.87;;;15.00;99.90;;;;;;1950919;73;21476;-76
2021/06/09 04:18:35;;;;;;;91.92;28.75;;;15.10;99.90;;;;;;1950931;73;21585;-77
2021/06/09 04:21:00;;;;;;;82.08;27.30;;;15.10;99.90;;;;;;1950838;72;21182;-76
2021/06/09 04:23:26;;;;;;;80.70;25.30;;;15.20;99.90;;;;;;1950932;72;21131;-76
2021/06/09 04:25:53;;;;;;;72.50;25.82;;;15.10;99.90;;;;;;1950840;73;21169;-77
2021/06/09 04:28:19;;;;;;;72.15;26.48;;;15.10;99.90;;;;;;1950806;73;21057;-77
2021/06/09 04:30:45;;;;;;;72.37;26.07;;;15.10;99.90;;;;;;1950806;73;21065;-78
2021/06/09 04:33:12;;;;;;;64.75;23.12;;;15.10;99.90;;;;;;1950814;73;21053;-77
2021/06/09 04:35:38;;;;;;;60.67;21.93;;;15.10;99.90;;;;;;1950768;73;21056;-80
2021/06/09 04:38:06;;;;;;;52.30;20.05;;;15.10;99.90;;;;;;1951837;73;21068;-77
2021/06/09 04:40:32;;;;;;;50.38;19.20;;;15.10;99.90;;;;;;1950974;72;21092;-78
2021/06/09 04:42:58;;;;;;;47.75;20.48;;;15.10;99.90;;;;;;1954429;73;21061;-79
2021/06/09 04:45:24;;;;;;;56.05;20.37;;;15.20;99.90;;;;;;1950902;73;21021;-78
2021/06/09 04:47:50;;;;;;;49.30;19.52;;;15.10;99.90;;;;;;1950905;73;21056;-77
2021/06/09 04:50:16;;;;;;;56.70;21.95;;;15.30;99.90;;;;;;1950974;73;21057;-77
2021/06/09 04:52:42;;;;;;;66.90;22.00;;;15.30;99.90;;;;;;1950932;73;21094;-77
2021/06/09 04:55:11;;;;;;;56.95;22.30;;;15.30;99.90;;;;;;1951958;72;21060;-78
2021/06/09 04:57:36;;;;;;;59.30;22.30;;;15.20;99.90;;;;;;1950875;72;21049;-78
2021/06/09 05:00:02;;;;;;;59.55;21.65;;;15.10;99.90;;;;;;1951969;72;21081;-79
2021/06/09 05:02:29;;;;;;;54.93;20.75;;;15.20;99.90;;;;;;1950943;73;21049;-78
2021/06/09 05:04:55;;;;;;;57.27;21.02;;;15.30;99.90;;;;;;1951038;73;21130;-78
2021/06/09 05:07:21;;;;;;;83.45;23.20;;;15.50;99.90;;;;;;1951991;73;21040;-78
2021/06/09 05:09:47;;;;;;;71.17;21.70;;;15.40;99.90;;;;;;1950884;73;21114;-78
2021/06/09 05:12:13;;;;;;;65.60;21.65;;;15.30;99.90;;;;;;1951275;73;21179;-79
2021/06/09 05:14:39;;;;;;;56.13;19.85;;;15.40;99.90;;;;;;1950973;73;21048;-77
2021/06/09 05:17:05;;;;;;;56.40;18.42;;;15.50;99.90;;;;;;1951026;73;21118;-78
2021/06/09 05:19:31;;;;;;;56.80;18.77;;;15.50;99.90;;;;;;1951123;73;21110;-78
2021/06/09 05:21:58;;;;;;;47.25;18.42;;;15.50;99.90;;;;;;1951048;73;21045;-76
2021/06/09 05:24:24;;;;;;;48.35;18.62;;;15.60;99.90;;;;;;1951060;73;21114;-76
2021/06/09 05:26:50;;;;;;;45.23;17.40;;;15.50;99.90;;;;;;1951007;73;21044;-75
2021/06/09 05:29:16;;;;;;;45.03;18.62;;;15.60;99.90;;;;;;1950975;73;21114;-76
2021/06/09 05:31:42;;;;;;;43.10;17.12;;;15.80;99.90;;;;;;1952899;73;21069;-74
2021/06/09 05:34:08;;;;;;;47.80;17.02;;;16.00;99.90;;;;;;1954656;72;21066;-75
2021/06/09 05:36:35;;;;;;;40.20;16.80;;;16.10;99.90;;;;;;1953248;73;21407;-76
2021/06/09 05:39:01;;;;;;;35.80;15.35;;;16.20;99.90;;;;;;1950991;73;21517;-76
2021/06/09 05:41:27;;;;;;;33.25;15.00;;;16.30;99.90;;;;;;1951045;73;21460;-75
2021/06/09 05:43:53;;;;;;;32.13;13.65;;;16.30;99.90;;;;;;1950857;73;21472;-76
2021/06/09 05:46:19;;;;;;;32.35;13.58;;;16.30;99.90;;;;;;1950945;73;21545;-77
2021/06/09 05:48:45;;;;;;;38.53;15.72;;;16.40;99.90;;;;;;1950781;73;21094;-79
2021/06/09 05:51:11;;;;;;;38.60;15.13;;;16.40;99.90;;;;;;1951038;73;21044;-76
2021/06/09 05:53:37;;;;;;;33.48;14.47;;;16.30;99.90;;;;;;1950842;73;21045;-79
2021/06/09 05:56:04;;;;;;;36.63;15.05;;;16.20;99.90;;;;;;1951117;73;21118;-77
2021/06/09 05:58:30;;;;;;;31.62;14.63;;;16.10;99.90;;;;;;1951461;73;21048;-79
2021/06/09 06:00:56;;;;;;;28.30;14.30;;;16.30;99.90;;;;;;1951312;73;21040;-76
2021/06/09 06:03:28;;;;;;;34.27;14.87;;;16.30;99.90;;;;;;1952940;72;21072;-79
2021/06/09 06:06:00;;;;;;;34.98;15.55;;;16.40;99.90;;;;;;1949094;73;21098;-81
2021/06/09 06:08:18;;;;;;;34.58;14.83;;;16.40;99.90;;;;;;1946579;73;21048;-82
2021/06/09 06:10:44;;;;;;;34.40;14.43;;;16.30;99.90;;;;;;1952498;73;21083;-78
2021/06/09 06:13:10;;;;;;;34.00;14.80;;;16.40;99.90;;;;;;1952258;73;21049;-81
2021/06/09 06:15:37;;;;;;;31.45;14.78;;;16.70;99.90;;;;;;1952381;73;21056;-80
2021/06/09 06:18:03;;;;;;;27.42;13.83;;;16.70;99.90;;;;;;1951327;73;21069;-79
2021/06/09 06:20:29;;;;;;;27.93;13.93;;;16.80;99.90;;;;;;1951091;73;21041;-80
2021/06/09 06:22:55;;;;;;;26.60;13.62;;;16.90;99.90;;;;;;1950849;73;21053;-80
2021/06/09 06:25:22;;;;;;;27.05;13.60;;;16.70;99.90;;;;;;1951023;73;21115;-80
2021/06/09 06:27:49;;;;;;;26.70;13.58;;;16.70;99.90;;;;;;1950927;72;21025;-79
2021/06/09 06:30:15;;;;;;;21.97;11.97;;;16.70;99.90;;;;;;1950794;73;21053;-81
2021/06/09 06:32:41;;;;;;;22.42;12.85;;;16.80;99.90;;;;;;1951016;73;21123;-81
2021/06/09 06:35:07;;;;;;;25.45;12.85;;;16.80;99.90;;;;;;1950925;72;21041;-79
2021/06/09 06:37:33;;;;;;;20.10;11.85;;;16.60;99.90;;;;;;1951045;73;21092;-79
2021/06/09 06:39:59;;;;;;;26.52;13.62;;;16.80;99.90;;;;;;1950755;73;21056;-80
2021/06/09 06:42:25;;;;;;;24.82;12.45;;;16.90;99.90;;;;;;1950933;73;21045;-80
2021/06/09 06:44:52;;;;;;;25.40;12.20;;;16.80;99.90;;;;;;1950932;73;21052;-80
2021/06/09 06:47:19;;;;;;;28.12;13.50;;;16.90;99.90;;;;;;1951016;72;21053;-80
2021/06/09 06:49:45;;;;;;;26.20;13.58;;;17.00;99.90;;;;;;1950914;73;21029;-81
2021/06/09 06:52:11;;;;;;;25.60;12.73;;;17.10;99.90;;;;;;1950931;73;21051;-81
2021/06/09 06:54:37;;;;;;;23.20;12.60;;;17.10;99.90;;;;;;1951089;73;21056;-79
2021/06/09 06:57:04;;;;;;;21.97;13.25;;;17.20;99.90;;;;;;1951126;73;21068;-81
2021/06/09 06:59:30;;;;;;;24.95;13.22;;;17.20;99.90;;;;;;1950893;73;21114;-81
2021/06/09 07:01:56;;;;;;;23.20;13.22;;;17.00;99.90;;;;;;1950952;72;21109;-81
2021/06/09 07:04:22;;;;;;;27.40;13.45;;;17.40;99.90;;;;;;1951066;73;21054;-81
2021/06/09 07:06:48;;;;;;;34.08;13.70;;;17.50;99.90;;;;;;1954718;72;21071;-80
2021/06/09 07:09:14;;;;;;;30.02;13.18;;;17.70;99.90;;;;;;1951561;73;21056;-80
2021/06/09 07:11:40;;;;;;;22.80;12.20;;;17.60;99.90;;;;;;1951668;73;21044;-79
2021/06/09 07:14:06;;;;;;;27.80;13.45;;;17.60;99.90;;;;;;1952033;72;21068;-81
2021/06/09 07:16:33;;;;;;;27.32;13.53;;;17.50;99.90;;;;;;1952099;73;21094;-80
2021/06/09 07:18:59;;;;;;;23.40;12.60;;;17.30;99.90;;;;;;1950940;73;21114;-79
2021/06/09 07:21:25;;;;;;;23.35;12.65;;;17.50;99.90;;;;;;1950920;73;21099;-80
2021/06/09 07:23:52;;;;;;;22.52;12.60;;;17.60;99.90;;;;;;1950748;72;21139;-80
2021/06/09 07:26:18;;;;;;;20.80;12.33;;;17.80;99.90;;;;;;1950860;73;21129;-79
2021/06/09 07:28:44;;;;;;;17.80;11.68;;;17.90;99.90;;;;;;1950809;72;21073;-81
2021/06/09 07:31:10;;;;;;;19.70;11.15;;;18.10;99.90;;;;;;1950849;73;21053;-80
2021/06/09 07:33:36;;;;;;;17.57;10.80;;;18.20;99.90;;;;;;1950839;73;21060;-81
2021/06/09 07:36:03;;;;;;;18.90;11.38;;;18.30;99.90;;;;;;1950826;73;21060;-80
2021/06/09 07:38:29;;;;;;;18.92;11.75;;;18.40;99.90;;;;;;1951483;73;21032;-83
2021/06/09 07:40:55;;;;;;;19.10;10.43;;;18.50;99.90;;;;;;1952703;73;21151;-83
2021/06/09 07:43:21;;;;;;;20.45;10.65;;;18.30;99.90;;;;;;1952757;72;21107;-84
2021/06/09 07:45:47;;;;;;;22.80;10.50;;;18.50;99.90;;;;;;1952276;73;21051;-83
2021/06/09 07:48:13;;;;;;;16.95;10.45;;;18.50;99.90;;;;;;1951154;73;21524;-83
2021/06/09 07:50:39;;;;;;;15.18;10.13;;;18.70;99.90;;;;;;1950975;73;21475;-84
2021/06/09 07:53:10;;;;;;;18.62;11.57;;;18.90;99.90;;;;;;1951088;73;21526;-84
2021/06/09 07:55:37;;;;;;;15.48;9.88;;;19.00;99.90;;;;;;1951213;73;21134;-83
2021/06/09 07:58:03;;;;;;;18.00;10.48;;;19.20;99.90;;;;;;1951092;73;21084;-85
2021/06/09 08:00:29;;;;;;;24.35;10.70;;;19.20;99.90;;;;;;1951367;73;21040;-84
2021/06/09 08:02:55;;;;;;;17.60;9.93;;;19.40;99.90;;;;;;1951343;73;20982;-85
2021/06/09 08:05:22;;;;;;;16.77;10.60;;;19.60;99.90;;;;;;1951264;73;21059;-84
2021/06/09 08:07:48;;;;;;;18.52;10.60;;;19.50;99.90;;;;;;1951076;72;21114;-83
2021/06/09 08:10:14;;;;;;;21.97;11.10;;;19.50;99.90;;;;;;1951162;73;21100;-85
2021/06/09 08:12:40;;;;;;;18.40;10.00;;;19.70;99.90;;;;;;1952187;73;21056;-84
2021/06/09 08:15:06;;;;;;;18.12;10.53;;;19.70;99.90;;;;;;1952299;73;21029;-83
2021/06/09 08:17:38;;;;;;;14.78;9.05;;;19.60;99.90;;;;;;1951568;73;21094;-85
2021/06/09 08:20:00;;;;;;;17.73;10.55;;;19.90;99.90;;;;;;1948919;73;21073;-85
2021/06/09 08:22:26;;;;;;;19.62;10.25;;;20.30;99.90;;;;;;1952087;73;21057;-84
2021/06/09 08:24:56;;;;;;;23.27;9.70;;;20.40;99.90;;;;;;1951849;72;21060;-84
2021/06/09 08:27:20;;;;;;;17.90;9.28;;;20.50;99.90;;;;;;1950129;73;21448;-84
2021/06/09 08:29:46;;;;;;;14.93;9.20;;;20.60;99.90;;;;;;1951901;73;21522;-85
2021/06/09 08:32:12;;;;;;;16.52;9.90;;;20.30;99.90;;;;;;1951703;73;21534;-86
2021/06/09 08:34:38;;;;;;;13.40;9.15;;;20.80;99.90;;;;;;1951595;73;21521;-85
2021/06/09 08:37:05;;;;;;;14.63;9.25;;;21.20;99.90;;;;;;1951602;72;21389;-85
2021/06/09 08:39:31;;;;;;;14.28;9.58;;;21.50;99.90;;;;;;1951771;73;21021;-84
2021/06/09 08:41:57;;;;;;;13.90;8.73;;;21.50;99.90;;;;;;1951702;72;21053;-85
2021/06/09 08:44:23;;;;;;;18.45;9.50;;;21.90;99.90;;;;;;1951604;73;21053;-87
2021/06/09 08:46:49;;;;;;;13.70;8.50;;;21.90;99.90;;;;;;1951731;72;21032;-87
2021/06/09 08:49:15;;;;;;;23.98;9.85;;;22.60;99.90;;;;;;1951861;73;21045;-85
2021/06/09 08:51:42;;;;;;;18.40;9.53;;;23.40;99.90;;;;;;1951613;73;21028;-87
2021/06/09 08:54:08;;;;;;;14.53;9.73;;;23.50;99.90;;;;;;1951830;73;21052;-87
2021/06/09 08:56:36;;;;;;;22.07;8.85;;;22.90;99.90;;;;;;1951898;73;21083;-88
2021/06/09 08:59:02;;;;;;;16.07;9.60;;;23.30;99.90;;;;;;1951438;72;21064;-83
2021/06/09 09:01:31;;;;;;;16.32;9.80;;;22.60;99.90;;;;;;1950800;73;21029;-84
2021/06/09 09:03:56;;;;;;;15.28;9.08;;;22.20;99.90;;;;;;1951025;73;21475;-84
2021/06/09 09:06:23;;;;;;;17.73;10.38;;;22.20;99.90;;;;;;1950873;73;21488;-83
2021/06/09 09:08:51;;;;;;;14.45;8.93;;;22.20;99.90;;;;;;1950887;73;21064;-83
2021/06/09 09:11:17;;;;;;;18.67;10.20;;;22.40;99.90;;;;;;1950786;72;21080;-81
2021/06/09 09:13:43;;;;;;;18.00;10.23;;;22.40;99.90;;;;;;1950663;73;21165;-83
2021/06/09 09:16:09;;;;;;;10.85;7.55;;;22.30;99.90;;;;;;1950641;73;21138;-83
2021/06/09 09:18:36;;;;;;;21.80;9.30;;;22.50;99.90;;;;;;1950703;73;21025;-83
2021/06/09 09:21:02;;;;;;;12.00;8.20;;;22.50;99.90;;;;;;1950611;73;21123;-85
2021/06/09 09:23:31;;;;;;;14.03;9.15;;;22.80;99.90;;;;;;1940195;73;21082;-84
2021/06/09 09:25:57;;;;;;;12.30;8.58;;;22.70;99.90;;;;;;1950476;73;21099;-85
2021/06/09 09:28:23;;;;;;;11.78;7.53;;;22.90;99.90;;;;;;1950509;73;21115;-84
2021/06/09 09:30:49;;;;;;;15.32;9.10;;;23.30;99.90;;;;;;1950571;72;21134;-84
2021/06/09 09:33:16;;;;;;;16.32;8.65;;;23.50;99.90;;;;;;1950855;73;21025;-85
2021/06/09 09:35:43;;;;;;;14.83;9.20;;;23.50;99.90;;;;;;1950738;72;21132;-84
2021/06/09 09:38:09;;;;;;;18.30;9.08;;;23.50;99.90;;;;;;1950640;73;21122;-84
2021/06/09 09:40:35;;;;;;;15.93;9.63;;;23.40;99.90;;;;;;1950749;72;21057;-84
2021/06/09 09:43:01;;;;;;;16.95;9.30;;;23.40;99.90;;;;;;1950808;72;21025;-85
2021/06/09 09:45:28;;;;;;;15.45;9.50;;;23.20;99.90;;;;;;1950736;73;21130;-84
2021/06/09 09:47:54;;;;;;;14.33;8.40;;;23.70;99.90;;;;;;1950906;73;21119;-84
2021/06/09 09:50:20;;;;;;;16.25;8.88;;;23.90;99.90;;;;;;1950927;73;21061;-84
2021/06/09 09:52:47;;;;;;;13.45;9.15;;;23.80;99.90;;;;;;1951464;73;20993;-84
2021/06/09 09:55:14;;;;;;;13.15;8.03;;;23.60;99.90;;;;;;1953269;72;21084;-83
2021/06/09 09:57:40;;;;;;;14.50;9.53;;;23.40;99.90;;;;;;1954000;72;21029;-84
2021/06/09 10:00:07;;;;;;;14.58;8.75;;;23.80;99.90;;;;;;1951444;73;21057;-84
2021/06/09 10:02:33;;;;;;;16.20;9.80;;;24.40;99.90;;;;;;1951118;73;21537;-83
2021/06/09 10:05:03;;;;;;;14.13;8.10;;;23.90;99.90;;;;;;1951066;73;21099;-85
2021/06/09 10:07:28;;;;;;;15.20;9.08;;;24.40;99.90;;;;;;1951010;73;21518;-85
2021/06/09 10:09:59;;;;;;;12.73;8.40;;;25.10;99.90;;;;;;1951030;73;21081;-85
2021/06/09 10:12:21;;;;;;;15.63;8.45;;;24.90;99.90;;;;;;1950898;73;21065;-85
2021/06/09 10:14:49;;;;;;;20.85;8.48;;;25.60;99.90;;;;;;1951055;73;21056;-85
2021/06/09 10:17:15;;;;;;;17.48;9.35;;;25.90;99.90;;;;;;1950825;72;21178;-84
2021/06/09 10:19:43;;;;;;;14.60;8.53;;;25.90;99.90;;;;;;1953047;72;21118;-84
2021/06/09 10:22:11;;;;;;;15.15;8.60;;;25.60;99.90;;;;;;1952528;73;21064;-85
2021/06/09 10:24:37;;;;;;;13.43;9.13;;;25.80;99.90;;;;;;1952301;73;21013;-85
2021/06/09 10:27:06;;;;;;;12.60;8.23;;;25.40;99.90;;;;;;1951497;73;21088;-85
2021/06/09 10:29:31;;;;;;;13.98;8.38;;;25.80;99.90;;;;;;1951864;73;21064;-84
2021/06/09 10:31:57;;;;;;;13.20;8.55;;;26.20;99.90;;;;;;1953580;73;21064;-82
2021/06/09 10:34:25;;;;;;;13.93;8.08;;;26.10;99.90;;;;;;1954314;72;21060;-80
2021/06/09 10:36:51;;;;;;;13.60;8.18;;;25.50;99.90;;;;;;1952499;72;21056;-78
2021/06/09 10:39:17;;;;;;;14.85;8.53;;;25.50;99.90;;;;;;1954148;73;21057;-78
2021/06/09 10:41:46;;;;;;;19.07;9.25;;;26.10;99.90;;;;;;1951131;73;21073;-84
2021/06/09 10:44:12;;;;;;;14.58;9.25;;;25.70;99.90;;;;;;1951399;73;21421;-82
2021/06/09 10:46:38;;;;;;;14.65;8.75;;;25.70;99.90;;;;;;1952211;73;21061;-82
2021/06/09 10:49:09;;;;;;;15.10;8.30;;;25.50;99.90;;;;;;1951877;73;21065;-84
2021/06/09 10:51:35;;;;;;;13.35;8.43;;;26.00;99.90;;;;;;1953691;72;21108;-84
2021/06/09 10:54:03;;;;;;;12.68;8.50;;;25.70;99.90;;;;;;1951155;73;21057;-84
2021/06/09 10:56:29;;;;;;;11.08;7.20;;;25.40;99.90;;;;;;1940813;73;21060;-84
2021/06/09 10:58:55;;;;;;;10.75;7.65;;;25.30;99.90;;;;;;1950782;73;21142;-82
2021/06/09 11:01:21;;;;;;;13.35;7.65;;;25.70;99.90;;;;;;1940662;73;21049;-73
2021/06/09 11:03:48;;;;;;;16.17;7.60;;;26.10;99.90;;;;;;1952229;73;21029;-77
2021/06/09 11:06:14;;;;;;;12.78;7.80;;;26.10;99.90;;;;;;1950526;73;21632;-77
2021/06/09 11:08:40;;;;;;;20.37;7.05;;;26.20;99.90;;;;;;1950634;73;21107;-79
2021/06/09 11:11:06;;;;;;;10.75;6.30;;;26.90;99.90;;;;;;1950543;73;21105;-81
2021/06/09 11:13:32;;;;;;;10.20;7.12;;;27.10;99.90;;;;;;1950889;72;21057;-79
2021/06/09 11:15:58;;;;;;;12.20;7.83;;;27.10;99.90;;;;;;1950503;72;21056;-77
2021/06/09 11:18:24;;;;;;;12.13;7.20;;;27.00;99.90;;;;;;1950697;73;21165;-78
2021/06/09 11:20:51;;;;;;;12.03;7.95;;;26.70;99.90;;;;;;1950556;72;21065;-77
2021/06/09 11:23:17;;;;;;;10.03;6.80;;;26.20;99.90;;;;;;1950697;72;21026;-78
2021/06/09 11:25:44;;;;;;;15.45;6.12;;;26.60;99.90;;;;;;1950574;72;21129;-78
2021/06/09 11:28:10;;;;;;;8.75;5.83;;;26.80;99.90;;;;;;1950518;73;21161;-78
2021/06/09 11:30:36;;;;;;;9.05;5.53;;;27.30;99.90;;;;;;1950625;73;21076;-78
2021/06/09 11:33:02;;;;;;;11.28;6.17;;;27.30;99.90;;;;;;1950565;72;21029;-78
2021/06/09 11:35:28;;;;;;;7.30;5.55;;;26.70;99.90;;;;;;1950698;73;21480;-78
2021/06/09 11:37:54;;;;;;;7.08;5.42;;;26.70;99.90;;;;;;1950722;73;21553;-82
2021/06/09 11:40:21;;;;;;;8.43;4.80;;;26.60;99.90;;;;;;1950690;73;21020;-77
2021/06/09 11:42:47;;;;;;;6.08;5.05;;;26.60;99.90;;;;;;1950588;73;21127;-79
2021/06/09 11:45:13;;;;;;;8.90;5.30;;;26.60;99.90;;;;;;1950724;73;21052;-79
2021/06/09 11:47:39;;;;;;;9.85;4.78;;;27.40;99.90;;;;;;1950783;73;21188;-79
2021/06/09 11:50:05;;;;;;;5.42;4.22;;;28.00;99.90;;;;;;1950743;73;21033;-79
2021/06/09 11:52:31;;;;;;;6.53;4.35;;;28.60;99.90;;;;;;1951131;73;21133;-79
2021/06/09 11:55:04;;;;;;;5.58;4.03;;;28.50;99.90;;;;;;1951207;73;21052;-79
2021/06/09 11:57:26;;;;;;;5.22;3.83;;;28.60;99.90;;;;;;1949906;73;21146;-78
2021/06/09 11:59:52;;;;;;;4.55;3.83;;;27.80;99.90;;;;;;1951087;72;21025;-79
2021/06/09 12:02:25;;;;;;;4.03;3.12;;;28.00;99.90;;;;;;1951318;72;21049;-78
2021/06/09 12:04:51;;;;;;;4.47;3.47;;;28.20;99.90;;;;;;1951906;73;21065;-79
2021/06/09 12:07:17;;;;;;;6.25;2.80;;;28.00;99.90;;;;;;1951219;72;21029;-79
2021/06/09 12:09:43;;;;;;;5.85;2.83;;;28.40;99.90;;;;;;1951257;73;21060;-79
2021/06/09 12:12:09;;;;;;;3.08;2.20;;;27.90;99.90;;;;;;1951238;73;21060;-78
2021/06/09 12:14:35;;;;;;;3.90;3.00;;;28.70;99.90;;;;;;1951699;73;21051;-79
2021/06/09 12:17:01;;;;;;;4.30;3.00;;;28.80;99.90;;;;;;1953633;73;21012;-78
2021/06/09 12:19:28;;;;;;;4.67;3.40;;;28.90;99.90;;;;;;1951891;72;21033;-78
2021/06/09 12:21:54;;;;;;;5.85;4.00;;;29.10;99.90;;;;;;1953070;73;21056;-79
2021/06/09 12:24:26;;;;;;;11.05;3.85;;;28.40;99.90;;;;;;1953535;73;21043;-79
2021/06/09 12:26:52;;;;;;;6.67;3.55;;;28.50;99.90;;;;;;1952750;73;21068;-79